createdAt,value
2022-12-19T00:00:59.706Z,101782.29
2022-12-19T00:04:13.673Z,101785.30
2022-12-19T00:07:19.894Z,101793.44
2022-12-19T00:10:26.754Z,101785.98
2022-12-19T00:13:33.625Z,101785.91
2022-12-19T00:16:43.513Z,101788.44
2022-12-19T00:19:49.008Z,101788.84
2022-12-19T00:22:55.373Z,101791.14
2022-12-19T00:26:00.150Z,101798.11
2022-12-19T00:29:14.057Z,101803.02
2022-12-19T00:32:17.076Z,101811.62
2022-12-19T00:35:23.072Z,101806.54
2022-12-19T00:38:29.680Z,101819.34
2022-12-19T00:41:44.437Z,101814.19
2022-12-19T00:44:50.696Z,101810.48
2022-12-19T00:47:57.554Z,101826.16
2022-12-19T00:51:03.615Z,101824.81
2022-12-19T00:54:13.292Z,101820.03
2022-12-19T00:57:21.057Z,101818.33
2022-12-19T01:00:29.465Z,101824.72
2022-12-19T01:03:34.642Z,101820.64
2022-12-19T01:06:41.042Z,101818.43
2022-12-19T01:09:48.708Z,101819.49
2022-12-19T01:12:56.227Z,101818.83
2022-12-19T01:16:03.150Z,101823.13
2022-12-19T01:19:09.743Z,101822.37
2022-12-19T01:22:15.956Z,101819.55
2022-12-19T01:25:15.663Z,101821.83
2022-12-19T01:28:10.086Z,101818.13
2022-12-19T01:31:19.534Z,101817.09
2022-12-19T01:34:26.022Z,101820.07
2022-12-19T01:37:32.533Z,101813.35
2022-12-19T01:40:38.389Z,101821.38
2022-12-19T01:43:47.148Z,101818.53
2022-12-19T01:47:00.941Z,101818.09
2022-12-19T01:50:07.404Z,101810.67
2022-12-19T01:53:13.315Z,101818.20
2022-12-19T01:56:19.306Z,101831.33
2022-12-19T01:59:31.807Z,101820.73
2022-12-19T02:02:43.223Z,101827.93
2022-12-19T02:05:49.423Z,101836.94
2022-12-19T02:08:55.801Z,101819.87
2022-12-19T02:12:01.929Z,101833.05
2022-12-19T02:15:08.139Z,101821.42
2022-12-19T02:18:30.455Z,101830.37
2022-12-19T02:22:18.955Z,101829.09
2022-12-19T02:26:02.327Z,101836.19
2022-12-19T02:29:35.667Z,101843.94
2022-12-19T02:33:07.918Z,101845.45
2022-12-19T02:36:42.664Z,101842.00
2022-12-19T02:40:08.847Z,101849.65
2022-12-19T02:43:14.858Z,101847.88
2022-12-19T02:46:21.593Z,101855.84
2022-12-19T02:49:30.912Z,101849.12
2022-12-19T02:52:40.798Z,101853.17
2022-12-19T02:55:47.314Z,101850.45
2022-12-19T02:59:31.446Z,101854.41
2022-12-19T03:03:00.779Z,101850.15
2022-12-19T03:06:26.912Z,101871.13
2022-12-19T03:09:59.921Z,101877.29
2022-12-19T03:13:26.953Z,101881.95
2022-12-19T03:16:31.913Z,101883.52
2022-12-19T03:19:37.675Z,101881.61
2022-12-19T03:22:43.412Z,101883.57
2022-12-19T03:25:50.647Z,101884.57
2022-12-19T03:29:41.858Z,101885.77
2022-12-19T03:32:36.063Z,101904.40
2022-12-19T03:35:43.805Z,101913.91
2022-12-19T03:38:51.756Z,101918.88
2022-12-19T03:42:15.030Z,101928.94
2022-12-19T03:45:21.087Z,101938.70
2022-12-19T03:48:33.976Z,101942.47
2022-12-19T03:51:59.371Z,101945.77
2022-12-19T03:55:14.410Z,101960.89
2022-12-19T03:58:27.882Z,101959.08
2022-12-19T04:01:33.664Z,101960.70
2022-12-19T04:04:39.779Z,101958.13
2022-12-19T04:07:44.618Z,101955.05
2022-12-19T04:10:59.534Z,101965.48
2022-12-19T04:14:10.887Z,101965.13
2022-12-19T04:17:42.015Z,101974.92
2022-12-19T04:20:46.901Z,101992.79
2022-12-19T04:24:03.247Z,101993.13
2022-12-19T04:27:08.781Z,101997.37
2022-12-19T04:30:14.496Z,102008.59
2022-12-19T04:33:20.366Z,102016.56
2022-12-19T04:36:26.313Z,102016.87
2022-12-19T04:39:33.026Z,102023.57
2022-12-19T04:42:39.229Z,102033.46
2022-12-19T04:45:38.295Z,102027.11
2022-12-19T04:48:30.260Z,102033.10
2022-12-19T04:51:37.007Z,102041.62
2022-12-19T04:54:43.486Z,102041.62
2022-12-19T04:57:42.474Z,102046.02
2022-12-19T05:00:48.264Z,102043.80
2022-12-19T05:03:58.645Z,102048.70
2022-12-19T05:07:01.540Z,102056.19
2022-12-19T05:10:07.239Z,102052.44
2022-12-19T05:13:14.053Z,102057.88
2022-12-19T05:16:24.929Z,102062.89
2022-12-19T05:19:30.926Z,102059.27
2022-12-19T05:22:37.607Z,102068.55
2022-12-19T05:25:43.643Z,102075.62
2022-12-19T05:28:49.298Z,102090.20
2022-12-19T05:31:54.703Z,102088.55
2022-12-19T05:34:59.793Z,102092.97
2022-12-19T05:38:05.272Z,102089.05
2022-12-19T05:41:10.238Z,102087.76
2022-12-19T05:44:16.985Z,102086.37
2022-12-19T05:47:22.658Z,102094.45
2022-12-19T05:50:31.474Z,102108.84
2022-12-19T05:53:39.396Z,102101.94
2022-12-19T05:56:45.436Z,102104.63
2022-12-19T05:59:51.630Z,102123.31
2022-12-19T06:03:00.334Z,102120.80
2022-12-19T06:06:07.553Z,102127.71
2022-12-19T06:09:13.570Z,102125.70
2022-12-19T06:12:19.309Z,102130.56
2022-12-19T06:15:26.166Z,102135.53
2022-12-19T06:18:31.190Z,102133.66
2022-12-19T06:21:42.284Z,102138.67
2022-12-19T06:24:43.267Z,102150.00
2022-12-19T06:27:48.047Z,102144.16
2022-12-19T06:30:54.287Z,102144.56
2022-12-19T06:33:59.474Z,102149.49
2022-12-19T06:37:08.257Z,102152.11
2022-12-19T06:40:14.848Z,102143.83
2022-12-19T06:43:21.825Z,102146.98
2022-12-19T06:46:26.190Z,102161.97
2022-12-19T06:49:31.364Z,102155.89
2022-12-19T06:52:36.792Z,102169.08
2022-12-19T06:55:41.761Z,102172.46
2022-12-19T06:58:49.402Z,102181.70
2022-12-19T07:02:24.611Z,102173.56
2022-12-19T07:05:31.660Z,102180.14
2022-12-19T07:08:37.309Z,102172.37
2022-12-19T07:11:43.286Z,102183.52
2022-12-19T07:14:53.185Z,102192.34
2022-12-19T07:17:57.272Z,102205.95
2022-12-19T07:25:34.678Z,102200.83
2022-12-19T07:28:40.383Z,102213.12
2022-12-19T07:31:46.367Z,102219.68
2022-12-19T07:34:52.145Z,102221.24
2022-12-19T07:37:57.674Z,102223.70
2022-12-19T07:41:03.471Z,102224.11
2022-12-19T07:44:09.040Z,102231.35
2022-12-19T07:47:23.948Z,102228.42
2022-12-19T07:50:28.945Z,102231.76
2022-12-19T07:53:37.988Z,102233.32
2022-12-19T07:56:37.421Z,102253.86
2022-12-19T07:59:45.328Z,102247.80
2022-12-19T08:02:51.920Z,102248.89
2022-12-19T08:05:59.578Z,102263.22
2022-12-19T08:09:05.282Z,102253.66
2022-12-19T08:12:14.996Z,102252.67
2022-12-19T08:15:25.716Z,102261.55
2022-12-19T08:18:36.959Z,102246.91
2022-12-19T08:21:42.551Z,102262.84
2022-12-19T08:24:48.657Z,102266.82
2022-12-19T08:27:55.735Z,102266.81
2022-12-19T08:31:04.028Z,102275.29
2022-12-19T08:34:11.388Z,102270.92
2022-12-19T08:37:17.468Z,102265.88
2022-12-19T08:40:23.539Z,102265.63
2022-12-19T08:43:29.245Z,102270.72
2022-12-19T08:46:28.226Z,102267.13
2022-12-19T08:49:33.835Z,102270.02
2022-12-19T08:52:40.189Z,102258.05
2022-12-19T08:55:45.649Z,102268.05
2022-12-19T08:58:51.509Z,102272.06
2022-12-19T09:01:57.504Z,102282.83
2022-12-19T09:06:03.956Z,102272.36
2022-12-19T09:08:11.580Z,102275.59
2022-12-19T09:11:25.831Z,102282.30
2022-12-19T09:14:31.248Z,102293.42
2022-12-19T09:17:36.756Z,102285.64
2022-12-19T09:20:44.047Z,102289.33
2022-12-19T09:23:49.676Z,102274.64
2022-12-19T09:26:55.581Z,102279.82
2022-12-19T09:30:02.051Z,102297.33
2022-12-19T09:33:07.414Z,102292.55
2022-12-19T09:36:12.460Z,102292.20
2022-12-19T09:39:17.794Z,102279.37
2022-12-19T09:42:48.992Z,102274.97
2022-12-19T09:46:10.796Z,102284.81
2022-12-19T09:49:16.154Z,102282.45
2022-12-19T09:52:33.219Z,102281.88
2022-12-19T09:55:51.323Z,102288.78
2022-12-19T09:59:04.143Z,102275.98
2022-12-19T10:02:24.553Z,102262.53
2022-12-19T10:07:06.966Z,102271.42
2022-12-19T10:10:57.641Z,102280.48
2022-12-19T10:12:50.845Z,102276.05
2022-12-19T10:16:04.847Z,102262.67
2022-12-19T10:19:20.225Z,102261.55
2022-12-19T10:22:56.373Z,102259.55
2022-12-19T10:26:15.537Z,102273.84
2022-12-19T10:29:53.943Z,102290.71
2022-12-19T10:33:20.523Z,102276.23
2022-12-19T10:36:48.754Z,102287.29
2022-12-19T10:39:45.227Z,102274.16
2022-12-19T10:43:44.067Z,102281.95
2022-12-19T10:47:04.489Z,102286.49
2022-12-19T10:50:11.225Z,102279.48
2022-12-19T10:53:22.438Z,102292.05
2022-12-19T10:56:36.805Z,102287.26
2022-12-19T10:59:37.514Z,102293.58
2022-12-19T11:02:55.405Z,102294.06
2022-12-19T11:06:06.215Z,102298.97
2022-12-19T11:09:19.090Z,102288.67
2022-12-19T11:15:55.962Z,102292.82
2022-12-19T11:20:18.965Z,102291.66
2022-12-19T11:29:15.642Z,102300.13
2022-12-19T11:29:19.663Z,102306.73
2022-12-19T11:29:33.109Z,102295.76
2022-12-19T11:29:42.228Z,102309.44
2022-12-19T11:34:47.045Z,102317.28
2022-12-19T11:38:16.368Z,102337.56
2022-12-19T11:41:36.040Z,102328.52
2022-12-19T11:44:46.723Z,102337.09
2022-12-19T11:48:20.734Z,102337.09
2022-12-19T11:51:58.426Z,102336.05
2022-12-19T11:55:19.775Z,102326.80
2022-12-19T11:58:28.003Z,102346.28
2022-12-19T12:02:05.089Z,102347.69
2022-12-19T12:05:26.747Z,102347.22
2022-12-19T12:10:35.278Z,102349.27
2022-12-19T12:18:02.400Z,102352.23
2022-12-19T12:31:05.107Z,102343.59
2022-12-19T12:31:09.855Z,102352.20
2022-12-19T12:31:22.909Z,102353.58
2022-12-19T12:31:39.470Z,102355.23
2022-12-19T12:32:02.053Z,102354.59
2022-12-19T12:36:00.035Z,102365.55
2022-12-19T12:40:47.788Z,102369.41
2022-12-19T12:44:13.041Z,102372.07
2022-12-19T12:47:39.948Z,102367.70
2022-12-19T12:50:51.289Z,102369.08
2022-12-19T12:53:54.853Z,102368.27
2022-12-19T12:57:01.014Z,102368.20
2022-12-19T13:00:36.128Z,102370.12
2022-12-19T13:03:41.802Z,102369.48
2022-12-19T13:07:06.497Z,102373.11
2022-12-19T13:10:39.939Z,102376.14
2022-12-19T13:14:08.665Z,102382.59
2022-12-19T13:17:13.628Z,102382.89
2022-12-19T13:20:44.829Z,102393.63
2022-12-19T13:24:01.184Z,102391.50
2022-12-19T13:27:06.797Z,102394.69
2022-12-19T13:30:22.508Z,102398.56
2022-12-19T13:33:28.513Z,102407.22
2022-12-19T13:39:56.521Z,102402.33
2022-12-19T13:40:20.918Z,102397.52
2022-12-19T13:43:56.160Z,102408.84
2022-12-19T13:47:02.136Z,102422.01
2022-12-19T13:50:07.993Z,102435.62
2022-12-19T13:53:13.142Z,102430.79
2022-12-19T13:56:31.708Z,102429.47
2022-12-19T13:59:45.621Z,102437.60
2022-12-19T14:02:52.368Z,102430.94
2022-12-19T14:06:18.480Z,102435.95
2022-12-19T14:11:24.356Z,102435.52
2022-12-19T14:13:47.808Z,102437.33
2022-12-19T14:15:52.540Z,102426.42
2022-12-19T14:18:58.445Z,102433.16
2022-12-19T14:22:15.679Z,102429.16
2022-12-19T14:28:13.985Z,102428.55
2022-12-19T14:28:31.258Z,102436.39
2022-12-19T14:31:39.640Z,102444.80
2022-12-19T14:36:10.696Z,102447.20
2022-12-19T14:38:13.110Z,102451.45
2022-12-19T14:41:09.373Z,102448.55
2022-12-19T14:54:01.856Z,102458.85
2022-12-19T14:54:04.859Z,102458.61
2022-12-19T14:54:05.591Z,102446.86
2022-12-19T14:54:35.862Z,102454.13
2022-12-19T14:57:06.693Z,102444.66
2022-12-19T15:01:07.515Z,102445.00
2022-12-19T15:03:21.318Z,102439.55
2022-12-19T15:07:07.176Z,102444.84
2022-12-19T15:11:08.739Z,102434.56
2022-12-19T15:14:53.231Z,102424.47
2022-12-19T15:16:44.892Z,102429.03
2022-12-19T15:19:51.583Z,102441.41
2022-12-19T15:22:56.819Z,102445.66
2022-12-19T15:26:04.431Z,102457.94
2022-12-19T15:29:09.723Z,102474.78
2022-12-19T15:32:08.777Z,102495.95
2022-12-19T15:35:14.692Z,102487.37
2022-12-19T15:38:19.998Z,102487.45
2022-12-19T15:41:36.980Z,102488.04
2022-12-19T15:44:56.247Z,102491.23
2022-12-19T15:48:01.666Z,102496.62
2022-12-19T15:51:06.730Z,102496.22
2022-12-19T15:57:18.699Z,102487.16
2022-12-19T16:00:33.730Z,102490.45
2022-12-19T16:03:39.544Z,102489.64
2022-12-19T16:06:45.061Z,102483.91
2022-12-19T16:09:52.083Z,102488.22
2022-12-19T16:13:00.718Z,102498.88
2022-12-19T16:16:15.109Z,102505.41
2022-12-19T16:19:13.717Z,102511.89
2022-12-19T16:22:31.743Z,102515.45
2022-12-19T16:25:37.775Z,102508.81
2022-12-19T16:28:47.773Z,102505.45
2022-12-19T16:31:53.866Z,102496.34
2022-12-19T16:34:59.709Z,102498.69
2022-12-19T16:38:05.684Z,102501.36
2022-12-19T16:41:11.149Z,102491.17
2022-12-19T16:44:19.445Z,102488.09
2022-12-19T16:47:25.097Z,102497.75
2022-12-19T16:50:43.423Z,102491.41
2022-12-19T16:53:48.325Z,102504.37
2022-12-19T16:57:01.895Z,102516.08
2022-12-19T17:00:08.178Z,102521.48
2022-12-19T17:03:23.433Z,102508.04
2022-12-19T17:06:29.952Z,102511.40
2022-12-19T17:09:37.799Z,102506.56
2022-12-19T17:12:43.625Z,102502.27
2022-12-19T17:15:56.816Z,102506.86
2022-12-19T17:18:59.511Z,102507.27
2022-12-19T17:21:57.420Z,102510.19
2022-12-19T17:25:03.953Z,102507.52
2022-12-19T17:28:10.375Z,102511.18
2022-12-19T17:31:18.744Z,102509.89
2022-12-19T17:34:34.155Z,102512.43
2022-12-19T17:37:39.280Z,102498.73
2022-12-19T17:40:49.067Z,102492.84
2022-12-19T17:43:55.127Z,102479.95
2022-12-19T17:47:00.907Z,102483.36
2022-12-19T17:50:06.135Z,102478.52
2022-12-19T17:53:11.995Z,102479.09
2022-12-19T17:56:17.453Z,102489.18
2022-12-19T17:59:22.487Z,102491.33
2022-12-19T18:02:39.372Z,102491.87
2022-12-19T18:05:48.713Z,102485.16
2022-12-19T18:08:54.287Z,102493.32
2022-12-19T18:12:00.875Z,102494.27
2022-12-19T18:15:07.104Z,102499.16
2022-12-19T18:18:12.682Z,102499.62
2022-12-19T18:21:17.419Z,102495.36
2022-12-19T18:24:27.389Z,102495.41
2022-12-19T18:27:33.128Z,102496.50
2022-12-19T18:30:38.681Z,102490.13
2022-12-19T18:33:49.163Z,102496.61
2022-12-19T18:36:56.249Z,102494.77
2022-12-19T18:40:02.931Z,102489.41
2022-12-19T18:43:08.886Z,102493.03
2022-12-19T18:46:14.986Z,102500.59
2022-12-19T18:49:21.005Z,102506.02
2022-12-19T18:52:26.649Z,102507.00
2022-12-19T18:55:36.123Z,102520.05
2022-12-19T18:58:34.219Z,102522.00
2022-12-19T19:01:31.402Z,102517.02
2022-12-19T19:04:37.643Z,102512.11
2022-12-19T19:07:44.009Z,102521.16
2022-12-19T19:10:50.196Z,102522.70
2022-12-19T19:13:57.270Z,102523.03
2022-12-19T19:17:02.525Z,102512.48
2022-12-19T19:20:07.723Z,102511.42
2022-12-19T19:23:15.447Z,102508.17
2022-12-19T19:26:21.002Z,102511.09
2022-12-19T19:29:26.942Z,102515.35
2022-12-19T19:32:32.513Z,102513.82
2022-12-19T19:35:38.901Z,102516.14
2022-12-19T19:38:44.423Z,102512.28
2022-12-19T19:41:50.355Z,102517.21
2022-12-19T19:44:56.263Z,102519.02
2022-12-19T19:48:01.716Z,102511.34
2022-12-19T19:51:07.224Z,102514.03
2022-12-19T19:54:12.856Z,102525.95
2022-12-19T19:57:19.458Z,102517.33
2022-12-19T20:00:26.628Z,102524.73
2022-12-19T20:03:32.043Z,102532.66
2022-12-19T20:06:37.076Z,102539.99
2022-12-19T20:09:43.623Z,102538.74
2022-12-19T20:12:49.923Z,102553.20
2022-12-19T20:15:55.578Z,102541.02
2022-12-19T20:19:04.131Z,102543.59
2022-12-19T20:22:10.250Z,102556.26
2022-12-19T20:25:16.392Z,102548.83
2022-12-19T20:28:22.040Z,102546.43
2022-12-19T20:31:27.645Z,102539.34
2022-12-19T20:34:33.184Z,102542.83
2022-12-19T20:37:39.785Z,102539.17
2022-12-19T20:40:45.829Z,102541.19
2022-12-19T20:43:51.548Z,102547.29
2022-12-19T20:46:57.565Z,102544.09
2022-12-19T20:50:02.552Z,102543.02
2022-12-19T20:53:07.677Z,102537.42
2022-12-19T20:56:14.280Z,102539.81
2022-12-19T20:59:18.930Z,102547.61
2022-12-19T21:02:26.035Z,102546.47
2022-12-19T21:05:32.101Z,102542.09
2022-12-19T21:08:37.590Z,102550.19
2022-12-19T21:11:43.098Z,102550.19
2022-12-19T21:14:50.965Z,102547.84
2022-12-19T21:17:57.852Z,102547.89
2022-12-19T21:21:04.386Z,102541.94
2022-12-19T21:24:09.607Z,102547.45
2022-12-19T21:27:15.593Z,102549.53
2022-12-19T21:30:22.343Z,102551.06
2022-12-19T21:33:27.729Z,102543.83
2022-12-19T21:36:35.385Z,102542.02
2022-12-19T21:39:40.619Z,102538.78
2022-12-19T21:42:46.866Z,102551.13
2022-12-19T21:45:53.892Z,102543.81
2022-12-19T21:49:02.039Z,102539.19
2022-12-19T21:52:06.486Z,102533.28
2022-12-19T21:55:11.912Z,102541.48
2022-12-19T21:58:18.214Z,102536.05
2022-12-19T22:01:27.704Z,102545.63
2022-12-19T22:04:36.140Z,102538.77
2022-12-19T22:07:42.344Z,102534.30
2022-12-19T22:10:48.109Z,102538.58
2022-12-19T22:13:55.769Z,102535.51
2022-12-19T22:17:02.381Z,102537.78
2022-12-19T22:20:08.110Z,102525.21
2022-12-19T22:23:13.805Z,102536.91
2022-12-19T22:26:30.170Z,102536.03
2022-12-19T22:29:36.569Z,102532.93
2022-12-19T22:32:42.628Z,102521.34
2022-12-19T22:35:48.588Z,102513.66
2022-12-19T22:39:00.590Z,102514.96
2022-12-19T22:41:59.170Z,102505.09
2022-12-19T22:44:45.105Z,102508.47
2022-12-19T22:47:37.886Z,102506.58
2022-12-19T22:50:31.071Z,102511.06
2022-12-19T22:53:36.979Z,102506.62
2022-12-19T22:56:44.743Z,102501.34
2022-12-19T22:59:50.673Z,102501.06
2022-12-19T23:02:58.269Z,102500.45
2022-12-19T23:06:04.743Z,102503.98
2022-12-19T23:09:11.339Z,102503.23
2022-12-19T23:12:17.166Z,102508.33
2022-12-19T23:15:23.349Z,102503.80
2022-12-19T23:18:28.447Z,102506.82
2022-12-19T23:21:36.719Z,102505.27
2022-12-19T23:24:35.778Z,102505.73
2022-12-19T23:27:41.267Z,102513.19
2022-12-19T23:30:46.039Z,102507.19
2022-12-19T23:33:51.012Z,102508.98
2022-12-19T23:37:12.931Z,102508.58
2022-12-19T23:40:05.105Z,102508.98
2022-12-19T23:43:11.565Z,102504.14
2022-12-19T23:46:23.053Z,102507.23
2022-12-19T23:49:22.193Z,102511.99
2022-12-19T23:52:20.511Z,102510.50
2022-12-19T23:55:27.235Z,102513.23
2022-12-19T23:58:33.267Z,102520.57
